sensor_id;sensor_type;location;lat;lon;timestamp;P1;durP1;ratioP1;P2;durP2;ratioP2
32611;SDS011;19030;49.478;8.986;2023-11-19T00:01:26;10.13;;;5.88;;
32611;SDS011;19030;49.478;8.986;2023-11-19T00:03:26;6.97;;;5.18;;
32611;SDS011;19030;49.478;8.986;2023-11-19T00:05:28;8.20;;;5.38;;
32611;SDS011;19030;49.478;8.986;2023-11-19T00:07:28;8.23;;;5.18;;
32611;SDS011;19030;49.478;8.986;2023-11-19T00:09:29;8.02;;;5.38;;
32611;SDS011;19030;49.478;8.986;2023-11-19T00:11:30;11.40;;;5.88;;
32611;SDS011;19030;49.478;8.986;2023-11-19T00:13:30;10.85;;;5.75;;
32611;SDS011;19030;49.478;8.986;2023-11-19T00:15:31;9.93;;;5.50;;
32611;SDS011;19030;49.478;8.986;2023-11-19T00:17:31;9.68;;;5.93;;
32611;SDS011;19030;49.478;8.986;2023-11-19T00:19:32;9.70;;;5.80;;
32611;SDS011;19030;49.478;8.986;2023-11-19T00:21:32;8.45;;;4.97;;
32611;SDS011;19030;49.478;8.986;2023-11-19T00:23:33;7.28;;;5.25;;
32611;SDS011;19030;49.478;8.986;2023-11-19T00:25:34;8.07;;;5.53;;
32611;SDS011;19030;49.478;8.986;2023-11-19T00:27:34;7.13;;;4.97;;
32611;SDS011;19030;49.478;8.986;2023-11-19T00:29:38;7.45;;;5.10;;
32611;SDS011;19030;49.478;8.986;2023-11-19T00:31:39;7.00;;;4.57;;
32611;SDS011;19030;49.478;8.986;2023-11-19T00:33:39;7.68;;;4.78;;
32611;SDS011;19030;49.478;8.986;2023-11-19T00:35:40;8.75;;;4.78;;
32611;SDS011;19030;49.478;8.986;2023-11-19T00:37:40;9.27;;;5.05;;
32611;SDS011;19030;49.478;8.986;2023-11-19T00:39:42;8.10;;;5.40;;
32611;SDS011;19030;49.478;8.986;2023-11-19T00:41:43;9.73;;;4.97;;
32611;SDS011;19030;49.478;8.986;2023-11-19T00:43:46;5.68;;;4.32;;
32611;SDS011;19030;49.478;8.986;2023-11-19T00:45:47;7.53;;;4.53;;
32611;SDS011;19030;49.478;8.986;2023-11-19T00:47:50;6.90;;;4.50;;
32611;SDS011;19030;49.478;8.986;2023-11-19T00:49:51;7.10;;;4.85;;
32611;SDS011;19030;49.478;8.986;2023-11-19T00:51:51;7.40;;;4.75;;
32611;SDS011;19030;49.478;8.986;2023-11-19T00:53:52;7.03;;;4.47;;
32611;SDS011;19030;49.478;8.986;2023-11-19T00:55:53;8.18;;;4.40;;
32611;SDS011;19030;49.478;8.986;2023-11-19T00:57:53;6.65;;;4.18;;
32611;SDS011;19030;49.478;8.986;2023-11-19T00:59:56;10.73;;;4.30;;
32611;SDS011;19030;49.478;8.986;2023-11-19T01:01:57;6.35;;;4.30;;
32611;SDS011;19030;49.478;8.986;2023-11-19T01:03:57;6.22;;;4.38;;
32611;SDS011;19030;49.478;8.986;2023-11-19T01:05:58;5.93;;;3.92;;
32611;SDS011;19030;49.478;8.986;2023-11-19T01:08:01;7.13;;;4.40;;
32611;SDS011;19030;49.478;8.986;2023-11-19T01:10:04;7.43;;;4.30;;
32611;SDS011;19030;49.478;8.986;2023-11-19T01:12:06;6.10;;;4.10;;
32611;SDS011;19030;49.478;8.986;2023-11-19T01:14:07;6.38;;;3.80;;
32611;SDS011;19030;49.478;8.986;2023-11-19T01:16:07;5.20;;;3.70;;
32611;SDS011;19030;49.478;8.986;2023-11-19T01:18:09;4.25;;;3.38;;
32611;SDS011;19030;49.478;8.986;2023-11-19T01:20:11;5.82;;;3.47;;
32611;SDS011;19030;49.478;8.986;2023-11-19T01:22:13;4.28;;;3.10;;
32611;SDS011;19030;49.478;8.986;2023-11-19T01:24:13;5.50;;;3.70;;
32611;SDS011;19030;49.478;8.986;2023-11-19T01:26:14;4.57;;;3.05;;
32611;SDS011;19030;49.478;8.986;2023-11-19T01:28:15;5.47;;;3.30;;
32611;SDS011;19030;49.478;8.986;2023-11-19T01:30:15;5.78;;;3.05;;
32611;SDS011;19030;49.478;8.986;2023-11-19T01:32:16;3.25;;;2.80;;
32611;SDS011;19030;49.478;8.986;2023-11-19T01:34:17;4.65;;;3.17;;
32611;SDS011;19030;49.478;8.986;2023-11-19T01:36:17;3.78;;;3.30;;
32611;SDS011;19030;49.478;8.986;2023-11-19T01:38:18;3.65;;;2.95;;
32611;SDS011;19030;49.478;8.986;2023-11-19T01:40:21;5.40;;;3.00;;
32611;SDS011;19030;49.478;8.986;2023-11-19T01:42:22;4.28;;;3.03;;
32611;SDS011;19030;49.478;8.986;2023-11-19T01:44:25;4.65;;;2.95;;
32611;SDS011;19030;49.478;8.986;2023-11-19T01:46:25;3.80;;;3.08;;
32611;SDS011;19030;49.478;8.986;2023-11-19T01:48:26;3.30;;;3.00;;
32611;SDS011;19030;49.478;8.986;2023-11-19T01:50:27;4.80;;;2.70;;
32611;SDS011;19030;49.478;8.986;2023-11-19T01:52:28;7.25;;;3.00;;
32611;SDS011;19030;49.478;8.986;2023-11-19T01:54:29;9.15;;;3.08;;
32611;SDS011;19030;49.478;8.986;2023-11-19T01:56:30;4.10;;;3.13;;
32611;SDS011;19030;49.478;8.986;2023-11-19T01:58:32;5.00;;;2.63;;
32611;SDS011;19030;49.478;8.986;2023-11-19T02:00:32;6.40;;;2.88;;
32611;SDS011;19030;49.478;8.986;2023-11-19T02:02:33;4.68;;;3.70;;
32611;SDS011;19030;49.478;8.986;2023-11-19T02:04:34;4.63;;;3.17;;
32611;SDS011;19030;49.478;8.986;2023-11-19T02:06:36;3.95;;;2.88;;
32611;SDS011;19030;49.478;8.986;2023-11-19T02:08:40;3.80;;;2.70;;
32611;SDS011;19030;49.478;8.986;2023-11-19T02:10:41;5.45;;;2.95;;
32611;SDS011;19030;49.478;8.986;2023-11-19T02:12:43;5.82;;;2.88;;
32611;SDS011;19030;49.478;8.986;2023-11-19T02:14:44;5.63;;;3.50;;
32611;SDS011;19030;49.478;8.986;2023-11-19T02:16:44;5.45;;;4.07;;
32611;SDS011;19030;49.478;8.986;2023-11-19T02:18:45;5.13;;;4.03;;
32611;SDS011;19030;49.478;8.986;2023-11-19T02:20:46;5.30;;;3.70;;
32611;SDS011;19030;49.478;8.986;2023-11-19T02:22:47;4.38;;;3.75;;
32611;SDS011;19030;49.478;8.986;2023-11-19T02:24:49;5.03;;;3.38;;
32611;SDS011;19030;49.478;8.986;2023-11-19T02:26:59;4.45;;;3.30;;
32611;SDS011;19030;49.478;8.986;2023-11-19T02:29:05;4.43;;;3.60;;
32611;SDS011;19030;49.478;8.986;2023-11-19T02:31:06;4.20;;;3.40;;
32611;SDS011;19030;49.478;8.986;2023-11-19T02:33:10;4.35;;;3.30;;
32611;SDS011;19030;49.478;8.986;2023-11-19T02:35:11;6.28;;;3.30;;
32611;SDS011;19030;49.478;8.986;2023-11-19T02:37:11;8.80;;;4.35;;
32611;SDS011;19030;49.478;8.986;2023-11-19T02:39:12;9.20;;;3.10;;
32611;SDS011;19030;49.478;8.986;2023-11-19T02:41:13;3.42;;;2.75;;
32611;SDS011;19030;49.478;8.986;2023-11-19T02:43:14;3.28;;;2.90;;
32611;SDS011;19030;49.478;8.986;2023-11-19T02:45:15;3.90;;;2.90;;
32611;SDS011;19030;49.478;8.986;2023-11-19T02:47:16;4.03;;;2.88;;
32611;SDS011;19030;49.478;8.986;2023-11-19T02:49:17;3.00;;;2.60;;
32611;SDS011;19030;49.478;8.986;2023-11-19T02:51:17;7.88;;;3.17;;
32611;SDS011;19030;49.478;8.986;2023-11-19T02:53:18;4.85;;;3.40;;
32611;SDS011;19030;49.478;8.986;2023-11-19T02:55:22;3.85;;;3.00;;
32611;SDS011;19030;49.478;8.986;2023-11-19T02:57:24;5.70;;;3.00;;
32611;SDS011;19030;49.478;8.986;2023-11-19T02:59:25;3.13;;;2.75;;
32611;SDS011;19030;49.478;8.986;2023-11-19T03:01:38;2.85;;;2.45;;
32611;SDS011;19030;49.478;8.986;2023-11-19T03:03:43;2.88;;;2.58;;
32611;SDS011;19030;49.478;8.986;2023-11-19T03:05:49;3.88;;;2.60;;
32611;SDS011;19030;49.478;8.986;2023-11-19T03:07:50;3.35;;;2.80;;
32611;SDS011;19030;49.478;8.986;2023-11-19T03:09:50;3.72;;;2.45;;
32611;SDS011;19030;49.478;8.986;2023-11-19T03:11:51;2.72;;;2.53;;
32611;SDS011;19030;49.478;8.986;2023-11-19T03:13:51;3.88;;;2.90;;
32611;SDS011;19030;49.478;8.986;2023-11-19T03:15:52;4.22;;;2.75;;
32611;SDS011;19030;49.478;8.986;2023-11-19T03:17:53;2.88;;;2.65;;
32611;SDS011;19030;49.478;8.986;2023-11-19T03:19:54;2.70;;;2.50;;
32611;SDS011;19030;49.478;8.986;2023-11-19T03:21:55;3.45;;;2.70;;
32611;SDS011;19030;49.478;8.986;2023-11-19T03:23:55;3.20;;;2.80;;
32611;SDS011;19030;49.478;8.986;2023-11-19T03:25:56;3.25;;;2.90;;
32611;SDS011;19030;49.478;8.986;2023-11-19T03:27:57;3.15;;;2.85;;
32611;SDS011;19030;49.478;8.986;2023-11-19T03:29:58;3.13;;;2.83;;
32611;SDS011;19030;49.478;8.986;2023-11-19T03:31:59;2.70;;;2.50;;
32611;SDS011;19030;49.478;8.986;2023-11-19T03:33:59;4.15;;;2.90;;
32611;SDS011;19030;49.478;8.986;2023-11-19T03:36:00;3.97;;;3.05;;
32611;SDS011;19030;49.478;8.986;2023-11-19T03:38:00;4.75;;;2.72;;
32611;SDS011;19030;49.478;8.986;2023-11-19T03:40:01;3.08;;;2.78;;
32611;SDS011;19030;49.478;8.986;2023-11-19T03:42:02;3.10;;;2.70;;
32611;SDS011;19030;49.478;8.986;2023-11-19T03:44:03;4.55;;;3.03;;
32611;SDS011;19030;49.478;8.986;2023-11-19T03:46:04;3.65;;;2.80;;
32611;SDS011;19030;49.478;8.986;2023-11-19T03:48:05;3.13;;;2.83;;
32611;SDS011;19030;49.478;8.986;2023-11-19T03:50:06;3.55;;;2.88;;
32611;SDS011;19030;49.478;8.986;2023-11-19T03:52:10;3.13;;;2.80;;
32611;SDS011;19030;49.478;8.986;2023-11-19T03:54:10;3.30;;;2.92;;
32611;SDS011;19030;49.478;8.986;2023-11-19T03:56:11;3.80;;;3.10;;
32611;SDS011;19030;49.478;8.986;2023-11-19T03:58:12;3.15;;;2.70;;
32611;SDS011;19030;49.478;8.986;2023-11-19T04:00:14;3.20;;;2.90;;
32611;SDS011;19030;49.478;8.986;2023-11-19T04:02:15;3.45;;;3.08;;
32611;SDS011;19030;49.478;8.986;2023-11-19T04:04:16;3.70;;;3.05;;
32611;SDS011;19030;49.478;8.986;2023-11-19T04:06:17;5.22;;;3.50;;
32611;SDS011;19030;49.478;8.986;2023-11-19T04:08:18;3.72;;;3.33;;
32611;SDS011;19030;49.478;8.986;2023-11-19T04:10:19;4.13;;;3.10;;
32611;SDS011;19030;49.478;8.986;2023-11-19T04:12:20;4.88;;;3.33;;
32611;SDS011;19030;49.478;8.986;2023-11-19T04:14:22;5.07;;;3.33;;
32611;SDS011;19030;49.478;8.986;2023-11-19T04:16:26;4.63;;;3.45;;
32611;SDS011;19030;49.478;8.986;2023-11-19T04:18:28;4.60;;;3.40;;
32611;SDS011;19030;49.478;8.986;2023-11-19T04:20:29;3.20;;;2.90;;
32611;SDS011;19030;49.478;8.986;2023-11-19T04:22:31;4.43;;;3.03;;
32611;SDS011;19030;49.478;8.986;2023-11-19T04:24:32;3.22;;;2.85;;
32611;SDS011;19030;49.478;8.986;2023-11-19T04:26:33;5.07;;;3.28;;
32611;SDS011;19030;49.478;8.986;2023-11-19T04:28:34;3.97;;;3.22;;
32611;SDS011;19030;49.478;8.986;2023-11-19T04:30:35;4.15;;;3.40;;
32611;SDS011;19030;49.478;8.986;2023-11-19T04:32:35;4.20;;;3.10;;
32611;SDS011;19030;49.478;8.986;2023-11-19T04:34:36;5.07;;;3.22;;
32611;SDS011;19030;49.478;8.986;2023-11-19T04:36:37;5.20;;;3.55;;
32611;SDS011;19030;49.478;8.986;2023-11-19T04:38:38;6.05;;;3.38;;
32611;SDS011;19030;49.478;8.986;2023-11-19T04:40:39;3.72;;;3.28;;
32611;SDS011;19030;49.478;8.986;2023-11-19T04:42:40;6.25;;;3.20;;
32611;SDS011;19030;49.478;8.986;2023-11-19T04:44:41;3.80;;;3.03;;
32611;SDS011;19030;49.478;8.986;2023-11-19T04:46:43;4.47;;;3.40;;
32611;SDS011;19030;49.478;8.986;2023-11-19T04:48:44;3.55;;;3.13;;
32611;SDS011;19030;49.478;8.986;2023-11-19T04:50:45;3.70;;;3.20;;
32611;SDS011;19030;49.478;8.986;2023-11-19T04:52:45;4.00;;;3.25;;
32611;SDS011;19030;49.478;8.986;2023-11-19T04:54:46;5.45;;;3.70;;
32611;SDS011;19030;49.478;8.986;2023-11-19T04:56:48;3.85;;;3.25;;
32611;SDS011;19030;49.478;8.986;2023-11-19T04:58:48;5.90;;;3.47;;
32611;SDS011;19030;49.478;8.986;2023-11-19T05:00:49;4.50;;;3.35;;
32611;SDS011;19030;49.478;8.986;2023-11-19T05:02:49;4.07;;;3.40;;
32611;SDS011;19030;49.478;8.986;2023-11-19T05:04:50;4.15;;;3.40;;
32611;SDS011;19030;49.478;8.986;2023-11-19T05:06:51;4.20;;;3.47;;
32611;SDS011;19030;49.478;8.986;2023-11-19T05:08:51;3.97;;;3.58;;
32611;SDS011;19030;49.478;8.986;2023-11-19T05:10:52;5.35;;;3.70;;
32611;SDS011;19030;49.478;8.986;2023-11-19T05:12:52;5.15;;;3.63;;
32611;SDS011;19030;49.478;8.986;2023-11-19T05:14:53;4.07;;;3.47;;
32611;SDS011;19030;49.478;8.986;2023-11-19T05:16:53;4.60;;;3.83;;
32611;SDS011;19030;49.478;8.986;2023-11-19T05:18:54;4.57;;;3.88;;
32611;SDS011;19030;49.478;8.986;2023-11-19T05:20:55;4.20;;;3.80;;
32611;SDS011;19030;49.478;8.986;2023-11-19T05:22:55;6.20;;;4.10;;
32611;SDS011;19030;49.478;8.986;2023-11-19T05:24:56;5.93;;;4.03;;
32611;SDS011;19030;49.478;8.986;2023-11-19T05:26:56;4.55;;;3.60;;
32611;SDS011;19030;49.478;8.986;2023-11-19T05:28:58;6.10;;;3.70;;
32611;SDS011;19030;49.478;8.986;2023-11-19T05:30:58;4.65;;;3.78;;
32611;SDS011;19030;49.478;8.986;2023-11-19T05:32:59;5.47;;;4.20;;
32611;SDS011;19030;49.478;8.986;2023-11-19T05:35:00;6.55;;;3.80;;
32611;SDS011;19030;49.478;8.986;2023-11-19T05:37:01;6.22;;;3.90;;
32611;SDS011;19030;49.478;8.986;2023-11-19T05:39:02;4.82;;;4.05;;
32611;SDS011;19030;49.478;8.986;2023-11-19T05:41:04;6.13;;;4.20;;
32611;SDS011;19030;49.478;8.986;2023-11-19T05:43:05;5.03;;;4.07;;
32611;SDS011;19030;49.478;8.986;2023-11-19T05:45:06;6.38;;;4.20;;
32611;SDS011;19030;49.478;8.986;2023-11-19T05:47:08;5.25;;;4.10;;
32611;SDS011;19030;49.478;8.986;2023-11-19T05:49:08;9.02;;;4.78;;
32611;SDS011;19030;49.478;8.986;2023-11-19T05:51:09;7.30;;;4.30;;
32611;SDS011;19030;49.478;8.986;2023-11-19T05:53:10;5.88;;;4.40;;
32611;SDS011;19030;49.478;8.986;2023-11-19T05:55:12;6.60;;;4.18;;
32611;SDS011;19030;49.478;8.986;2023-11-19T05:57:14;8.40;;;4.30;;
32611;SDS011;19030;49.478;8.986;2023-11-19T05:59:14;5.45;;;4.10;;
32611;SDS011;19030;49.478;8.986;2023-11-19T06:01:17;5.35;;;4.15;;
32611;SDS011;19030;49.478;8.986;2023-11-19T06:03:18;6.28;;;4.20;;
32611;SDS011;19030;49.478;8.986;2023-11-19T06:05:18;5.90;;;4.40;;
32611;SDS011;19030;49.478;8.986;2023-11-19T06:07:19;5.50;;;4.45;;
32611;SDS011;19030;49.478;8.986;2023-11-19T06:09:20;4.32;;;3.92;;
32611;SDS011;19030;49.478;8.986;2023-11-19T06:11:23;5.03;;;4.05;;
32611;SDS011;19030;49.478;8.986;2023-11-19T06:13:27;6.35;;;4.22;;
32611;SDS011;19030;49.478;8.986;2023-11-19T06:15:27;5.63;;;4.03;;
32611;SDS011;19030;49.478;8.986;2023-11-19T06:17:28;5.60;;;4.15;;
32611;SDS011;19030;49.478;8.986;2023-11-19T06:19:28;5.57;;;4.20;;
32611;SDS011;19030;49.478;8.986;2023-11-19T06:21:29;6.18;;;4.50;;
32611;SDS011;19030;49.478;8.986;2023-11-19T06:23:29;5.78;;;4.10;;
32611;SDS011;19030;49.478;8.986;2023-11-19T06:25:30;5.60;;;4.05;;
32611;SDS011;19030;49.478;8.986;2023-11-19T06:27:31;7.00;;;4.30;;
32611;SDS011;19030;49.478;8.986;2023-11-19T06:29:31;6.65;;;3.95;;
32611;SDS011;19030;49.478;8.986;2023-11-19T06:31:32;6.93;;;4.18;;
32611;SDS011;19030;49.478;8.986;2023-11-19T06:33:32;5.05;;;3.78;;
32611;SDS011;19030;49.478;8.986;2023-11-19T06:35:33;5.13;;;4.15;;
32611;SDS011;19030;49.478;8.986;2023-11-19T06:37:38;11.57;;;6.70;;
32611;SDS011;19030;49.478;8.986;2023-11-19T06:39:39;7.45;;;5.20;;
32611;SDS011;19030;49.478;8.986;2023-11-19T06:41:47;8.45;;;4.32;;
32611;SDS011;19030;49.478;8.986;2023-11-19T06:43:47;6.82;;;4.25;;
32611;SDS011;19030;49.478;8.986;2023-11-19T06:45:48;6.95;;;4.22;;
32611;SDS011;19030;49.478;8.986;2023-11-19T06:47:49;6.20;;;4.50;;
32611;SDS011;19030;49.478;8.986;2023-11-19T06:49:50;5.25;;;4.10;;
32611;SDS011;19030;49.478;8.986;2023-11-19T06:51:50;6.22;;;4.60;;
32611;SDS011;19030;49.478;8.986;2023-11-19T06:53:51;13.05;;;6.55;;
32611;SDS011;19030;49.478;8.986;2023-11-19T06:55:51;6.60;;;4.20;;
32611;SDS011;19030;49.478;8.986;2023-11-19T06:57:52;5.82;;;3.90;;
32611;SDS011;19030;49.478;8.986;2023-11-19T06:59:52;7.38;;;4.57;;
32611;SDS011;19030;49.478;8.986;2023-11-19T07:01:53;7.03;;;4.10;;
32611;SDS011;19030;49.478;8.986;2023-11-19T07:03:53;5.88;;;4.25;;
32611;SDS011;19030;49.478;8.986;2023-11-19T07:05:54;5.78;;;4.50;;
32611;SDS011;19030;49.478;8.986;2023-11-19T07:07:55;6.78;;;4.35;;
32611;SDS011;19030;49.478;8.986;2023-11-19T07:09:56;7.88;;;4.70;;
32611;SDS011;19030;49.478;8.986;2023-11-19T07:11:57;6.05;;;4.45;;
32611;SDS011;19030;49.478;8.986;2023-11-19T07:13:57;4.90;;;4.00;;
32611;SDS011;19030;49.478;8.986;2023-11-19T07:15:58;6.82;;;4.18;;
32611;SDS011;19030;49.478;8.986;2023-11-19T07:17:58;5.78;;;4.38;;
32611;SDS011;19030;49.478;8.986;2023-11-19T07:19:59;5.72;;;4.50;;
32611;SDS011;19030;49.478;8.986;2023-11-19T07:22:00;5.20;;;4.30;;
32611;SDS011;19030;49.478;8.986;2023-11-19T07:24:01;10.13;;;4.70;;
32611;SDS011;19030;49.478;8.986;2023-11-19T07:26:04;6.93;;;4.10;;
32611;SDS011;19030;49.478;8.986;2023-11-19T07:28:08;5.17;;;4.00;;
32611;SDS011;19030;49.478;8.986;2023-11-19T07:30:10;7.43;;;4.28;;
32611;SDS011;19030;49.478;8.986;2023-11-19T07:32:11;5.45;;;4.00;;
32611;SDS011;19030;49.478;8.986;2023-11-19T07:34:13;5.93;;;4.25;;
32611;SDS011;19030;49.478;8.986;2023-11-19T07:36:14;5.22;;;4.00;;
32611;SDS011;19030;49.478;8.986;2023-11-19T07:38:14;4.50;;;3.95;;
32611;SDS011;19030;49.478;8.986;2023-11-19T07:40:15;7.13;;;4.20;;
32611;SDS011;19030;49.478;8.986;2023-11-19T07:42:15;6.65;;;4.20;;
32611;SDS011;19030;49.478;8.986;2023-11-19T07:44:16;5.38;;;4.07;;
32611;SDS011;19030;49.478;8.986;2023-11-19T07:46:17;4.72;;;3.80;;
32611;SDS011;19030;49.478;8.986;2023-11-19T07:48:19;5.13;;;4.07;;
32611;SDS011;19030;49.478;8.986;2023-11-19T07:50:23;8.85;;;4.68;;
32611;SDS011;19030;49.478;8.986;2023-11-19T07:52:25;6.47;;;4.22;;
32611;SDS011;19030;49.478;8.986;2023-11-19T07:54:25;8.88;;;4.40;;
32611;SDS011;19030;49.478;8.986;2023-11-19T07:56:26;10.27;;;4.13;;
32611;SDS011;19030;49.478;8.986;2023-11-19T07:58:27;7.20;;;4.07;;
32611;SDS011;19030;49.478;8.986;2023-11-19T08:00:32;6.32;;;4.00;;
32611;SDS011;19030;49.478;8.986;2023-11-19T08:02:33;5.45;;;3.85;;
32611;SDS011;19030;49.478;8.986;2023-11-19T08:04:33;6.38;;;4.05;;
32611;SDS011;19030;49.478;8.986;2023-11-19T08:06:35;6.75;;;5.10;;
32611;SDS011;19030;49.478;8.986;2023-11-19T08:08:35;16.67;;;11.65;;
32611;SDS011;19030;49.478;8.986;2023-11-19T08:10:38;15.50;;;9.63;;
32611;SDS011;19030;49.478;8.986;2023-11-19T08:12:39;7.30;;;5.18;;
32611;SDS011;19030;49.478;8.986;2023-11-19T08:14:40;23.90;;;18.95;;
32611;SDS011;19030;49.478;8.986;2023-11-19T08:16:41;10.85;;;5.45;;
32611;SDS011;19030;49.478;8.986;2023-11-19T08:18:42;9.70;;;6.47;;
32611;SDS011;19030;49.478;8.986;2023-11-19T08:20:44;6.82;;;4.60;;
32611;SDS011;19030;49.478;8.986;2023-11-19T08:22:45;6.13;;;4.30;;
32611;SDS011;19030;49.478;8.986;2023-11-19T08:24:46;8.05;;;6.32;;
32611;SDS011;19030;49.478;8.986;2023-11-19T08:26:46;5.68;;;4.05;;
32611;SDS011;19030;49.478;8.986;2023-11-19T08:28:47;5.35;;;3.97;;
32611;SDS011;19030;49.478;8.986;2023-11-19T08:30:47;4.78;;;4.18;;
32611;SDS011;19030;49.478;8.986;2023-11-19T08:32:48;5.18;;;4.25;;
32611;SDS011;19030;49.478;8.986;2023-11-19T08:34:48;7.25;;;4.40;;
32611;SDS011;19030;49.478;8.986;2023-11-19T08:36:52;5.13;;;4.63;;
32611;SDS011;19030;49.478;8.986;2023-11-19T08:38:53;5.72;;;4.75;;
32611;SDS011;19030;49.478;8.986;2023-11-19T08:40:54;7.93;;;5.88;;
32611;SDS011;19030;49.478;8.986;2023-11-19T08:42:59;4.97;;;4.43;;
32611;SDS011;19030;49.478;8.986;2023-11-19T08:45:00;5.68;;;4.60;;
32611;SDS011;19030;49.478;8.986;2023-11-19T08:47:00;6.57;;;4.97;;
32611;SDS011;19030;49.478;8.986;2023-11-19T08:49:01;5.07;;;4.53;;
32611;SDS011;19030;49.478;8.986;2023-11-19T08:51:01;5.65;;;4.90;;
32611;SDS011;19030;49.478;8.986;2023-11-19T08:53:02;5.40;;;4.40;;
32611;SDS011;19030;49.478;8.986;2023-11-19T08:55:06;6.45;;;4.97;;
32611;SDS011;19030;49.478;8.986;2023-11-19T08:57:07;13.00;;;6.82;;
32611;SDS011;19030;49.478;8.986;2023-11-19T08:59:08;6.20;;;4.45;;
32611;SDS011;19030;49.478;8.986;2023-11-19T09:01:09;5.95;;;4.60;;
32611;SDS011;19030;49.478;8.986;2023-11-19T09:03:10;5.90;;;4.32;;
32611;SDS011;19030;49.478;8.986;2023-11-19T09:05:10;5.70;;;4.50;;
32611;SDS011;19030;49.478;8.986;2023-11-19T09:07:12;7.20;;;4.45;;
32611;SDS011;19030;49.478;8.986;2023-11-19T09:09:12;6.55;;;5.00;;
32611;SDS011;19030;49.478;8.986;2023-11-19T09:11:14;5.53;;;4.90;;
32611;SDS011;19030;49.478;8.986;2023-11-19T09:13:14;6.72;;;4.80;;
32611;SDS011;19030;49.478;8.986;2023-11-19T09:15:15;6.55;;;5.70;;
32611;SDS011;19030;49.478;8.986;2023-11-19T09:17:16;5.80;;;5.20;;
32611;SDS011;19030;49.478;8.986;2023-11-19T09:19:18;6.72;;;5.53;;
32611;SDS011;19030;49.478;8.986;2023-11-19T09:21:18;18.77;;;17.08;;
32611;SDS011;19030;49.478;8.986;2023-11-19T09:23:19;24.08;;;22.17;;
32611;SDS011;19030;49.478;8.986;2023-11-19T09:25:20;27.02;;;24.98;;
32611;SDS011;19030;49.478;8.986;2023-11-19T09:27:20;22.27;;;20.42;;
32611;SDS011;19030;49.478;8.986;2023-11-19T09:29:21;25.60;;;23.60;;
32611;SDS011;19030;49.478;8.986;2023-11-19T09:31:21;28.35;;;26.15;;
32611;SDS011;19030;49.478;8.986;2023-11-19T09:33:22;19.90;;;18.20;;
32611;SDS011;19030;49.478;8.986;2023-11-19T09:35:23;23.52;;;21.63;;
32611;SDS011;19030;49.478;8.986;2023-11-19T09:37:23;16.10;;;14.70;;
32611;SDS011;19030;49.478;8.986;2023-11-19T09:39:24;16.25;;;14.95;;
32611;SDS011;19030;49.478;8.986;2023-11-19T09:41:25;7.40;;;6.10;;
32611;SDS011;19030;49.478;8.986;2023-11-19T09:43:28;10.90;;;5.50;;
32611;SDS011;19030;49.478;8.986;2023-11-19T09:45:28;7.32;;;5.60;;
32611;SDS011;19030;49.478;8.986;2023-11-19T09:47:31;7.30;;;5.75;;
32611;SDS011;19030;49.478;8.986;2023-11-19T09:49:32;8.77;;;5.93;;
32611;SDS011;19030;49.478;8.986;2023-11-19T09:51:35;6.63;;;5.32;;
32611;SDS011;19030;49.478;8.986;2023-11-19T09:53:37;7.70;;;5.88;;
32611;SDS011;19030;49.478;8.986;2023-11-19T09:55:38;7.93;;;5.80;;
32611;SDS011;19030;49.478;8.986;2023-11-19T09:57:38;12.35;;;9.32;;
32611;SDS011;19030;49.478;8.986;2023-11-19T09:59:40;25.73;;;15.60;;
32611;SDS011;19030;49.478;8.986;2023-11-19T10:01:42;11.20;;;7.30;;
32611;SDS011;19030;49.478;8.986;2023-11-19T10:03:43;6.82;;;5.53;;
32611;SDS011;19030;49.478;8.986;2023-11-19T10:05:47;6.63;;;5.10;;
32611;SDS011;19030;49.478;8.986;2023-11-19T10:07:48;9.55;;;5.28;;
32611;SDS011;19030;49.478;8.986;2023-11-19T10:09:49;5.65;;;4.90;;
32611;SDS011;19030;49.478;8.986;2023-11-19T10:11:50;6.80;;;5.15;;
32611;SDS011;19030;49.478;8.986;2023-11-19T10:13:51;6.40;;;4.82;;
32611;SDS011;19030;49.478;8.986;2023-11-19T10:15:53;6.03;;;4.80;;
32611;SDS011;19030;49.478;8.986;2023-11-19T10:17:56;5.90;;;4.97;;
32611;SDS011;19030;49.478;8.986;2023-11-19T10:19:57;6.55;;;4.82;;
32611;SDS011;19030;49.478;8.986;2023-11-19T10:22:05;7.78;;;4.82;;
32611;SDS011;19030;49.478;8.986;2023-11-19T10:24:06;6.30;;;4.70;;
32611;SDS011;19030;49.478;8.986;2023-11-19T10:26:07;8.13;;;6.03;;
32611;SDS011;19030;49.478;8.986;2023-11-19T10:28:08;8.32;;;5.00;;
32611;SDS011;19030;49.478;8.986;2023-11-19T10:30:08;6.20;;;4.75;;
32611;SDS011;19030;49.478;8.986;2023-11-19T10:32:10;8.25;;;5.43;;
32611;SDS011;19030;49.478;8.986;2023-11-19T10:34:23;6.40;;;4.75;;
32611;SDS011;19030;49.478;8.986;2023-11-19T10:36:37;6.47;;;4.57;;
32611;SDS011;19030;49.478;8.986;2023-11-19T10:38:40;7.10;;;4.82;;
32611;SDS011;19030;49.478;8.986;2023-11-19T10:40:54;6.85;;;4.68;;
32611;SDS011;19030;49.478;8.986;2023-11-19T10:43:01;9.93;;;5.40;;
32611;SDS011;19030;49.478;8.986;2023-11-19T10:45:03;5.85;;;5.00;;
32611;SDS011;19030;49.478;8.986;2023-11-19T10:47:05;6.68;;;4.88;;
32611;SDS011;19030;49.478;8.986;2023-11-19T10:49:08;6.18;;;5.07;;
32611;SDS011;19030;49.478;8.986;2023-11-19T10:51:09;7.25;;;5.15;;
32611;SDS011;19030;49.478;8.986;2023-11-19T10:53:11;8.15;;;5.00;;
32611;SDS011;19030;49.478;8.986;2023-11-19T10:55:15;7.38;;;4.72;;
32611;SDS011;19030;49.478;8.986;2023-11-19T10:57:21;7.65;;;4.80;;
32611;SDS011;19030;49.478;8.986;2023-11-19T10:59:21;7.40;;;4.88;;
32611;SDS011;19030;49.478;8.986;2023-11-19T11:01:23;6.72;;;4.90;;
32611;SDS011;19030;49.478;8.986;2023-11-19T11:03:25;6.47;;;4.65;;
32611;SDS011;19030;49.478;8.986;2023-11-19T11:05:31;6.30;;;4.75;;
32611;SDS011;19030;49.478;8.986;2023-11-19T11:07:33;9.35;;;4.72;;
32611;SDS011;19030;49.478;8.986;2023-11-19T11:09:34;6.78;;;5.57;;
32611;SDS011;19030;49.478;8.986;2023-11-19T11:11:35;6.97;;;5.60;;
32611;SDS011;19030;49.478;8.986;2023-11-19T11:13:38;10.95;;;4.88;;
32611;SDS011;19030;49.478;8.986;2023-11-19T11:15:42;6.70;;;4.90;;
32611;SDS011;19030;49.478;8.986;2023-11-19T11:17:43;6.30;;;4.88;;
32611;SDS011;19030;49.478;8.986;2023-11-19T11:19:45;7.32;;;5.53;;
32611;SDS011;19030;49.478;8.986;2023-11-19T11:21:47;9.00;;;6.20;;
32611;SDS011;19030;49.478;8.986;2023-11-19T11:28:48;7.55;;;5.18;;
32611;SDS011;19030;49.478;8.986;2023-11-19T11:31:15;6.70;;;5.63;;
32611;SDS011;19030;49.478;8.986;2023-11-19T11:33:41;6.82;;;5.35;;
32611;SDS011;19030;49.478;8.986;2023-11-19T11:38:04;8.50;;;5.57;;
32611;SDS011;19030;49.478;8.986;2023-11-19T11:40:08;7.78;;;5.30;;
32611;SDS011;19030;49.478;8.986;2023-11-19T11:44:57;6.05;;;5.00;;
32611;SDS011;19030;49.478;8.986;2023-11-19T11:46:57;5.53;;;4.60;;
32611;SDS011;19030;49.478;8.986;2023-11-19T11:48:59;6.93;;;4.80;;
32611;SDS011;19030;49.478;8.986;2023-11-19T11:51:04;7.82;;;5.30;;
32611;SDS011;19030;49.478;8.986;2023-11-19T11:55:05;7.13;;;5.00;;
32611;SDS011;19030;49.478;8.986;2023-11-19T11:57:12;10.65;;;5.43;;
32611;SDS011;19030;49.478;8.986;2023-11-19T11:59:19;6.85;;;5.10;;
32611;SDS011;19030;49.478;8.986;2023-11-19T12:01:20;8.18;;;5.55;;
32611;SDS011;19030;49.478;8.986;2023-11-19T12:03:21;6.95;;;5.10;;
32611;SDS011;19030;49.478;8.986;2023-11-19T12:05:22;6.93;;;5.60;;
32611;SDS011;19030;49.478;8.986;2023-11-19T12:07:23;9.15;;;5.55;;
32611;SDS011;19030;49.478;8.986;2023-11-19T12:09:25;11.18;;;6.03;;
32611;SDS011;19030;49.478;8.986;2023-11-19T12:11:26;10.00;;;5.90;;
32611;SDS011;19030;49.478;8.986;2023-11-19T12:13:44;8.50;;;5.70;;
32611;SDS011;19030;49.478;8.986;2023-11-19T12:17:58;17.92;;;16.42;;
32611;SDS011;19030;49.478;8.986;2023-11-19T12:20:02;17.00;;;15.65;;
32611;SDS011;19030;49.478;8.986;2023-11-19T12:22:10;16.35;;;14.95;;
32611;SDS011;19030;49.478;8.986;2023-11-19T12:24:11;6.78;;;5.85;;
32611;SDS011;19030;49.478;8.986;2023-11-19T12:26:29;13.38;;;6.70;;